Time;durP1;ratioP1;P1;durP2;ratioP2;P2;SDS_P1;SDS_P2;PMS_P1;PMS_P2;Temp;Humidity;BMP_temperature;BMP_pressure;BME280_temperature;BME280_humidity;BME280_pressure;Samples;Min_cycle;Max_cycle;Signal;HPM_P1;HPM_P2
2021/09/08 00:02:05;;;;;;;31.50;23.85;;;;;;;;;;5032225;28;20117;-81
2021/09/08 00:04:31;;;;;;;28.50;23.33;;;;;;;;;;5032973;28;20037;-81
2021/09/08 00:06:56;;;;;;;34.60;23.95;;;;;;;;;;5032636;28;20714;-81
2021/09/08 00:09:21;;;;;;;30.27;22.63;;;;;;;;;;5030232;28;20025;-81
2021/09/08 00:11:47;;;;;;;31.30;23.98;;;;;;;;;;5031714;28;20068;-81
2021/09/08 00:14:12;;;;;;;33.13;24.20;;;;;;;;;;5031507;28;20021;-81
2021/09/08 00:16:37;;;;;;;34.72;23.45;;;;;;;;;;5031189;28;20053;-81
2021/09/08 00:19:03;;;;;;;30.47;23.10;;;;;;;;;;5028656;28;20032;-81
2021/09/08 00:21:28;;;;;;;30.47;23.57;;;;;;;;;;5029781;28;20248;-81
2021/09/08 00:23:53;;;;;;;31.33;22.67;;;;;;;;;;5029894;28;20264;-81
2021/09/08 00:26:19;;;;;;;37.10;25.77;;;;;;;;;;5029812;28;20034;-80
2021/09/08 00:28:44;;;;;;;28.20;22.48;;;;;;;;;;5030156;28;20751;-81
2021/09/08 00:31:09;;;;;;;35.03;24.47;;;;;;;;;;5031372;28;20044;-82
2021/09/08 00:33:35;;;;;;;33.22;25.50;;;;;;;;;;5032026;28;20275;-81
2021/09/08 00:36:00;;;;;;;34.55;26.20;;;;;;;;;;5031612;28;20026;-81
2021/09/08 00:38:25;;;;;;;36.03;25.27;;;;;;;;;;5029431;28;20035;-81
2021/09/08 00:40:53;;;;;;;34.67;25.10;;;;;;;;;;5032179;28;20026;-81
2021/09/08 00:43:18;;;;;;;34.00;26.20;;;;;;;;;;5030407;28;20049;-81
2021/09/08 00:45:49;;;;;;;30.83;24.27;;;;;;;;;;5030755;28;20548;-82
2021/09/08 00:48:14;;;;;;;;;;;;;;;;;;5029110;28;20770;-81
2021/09/08 00:50:40;;;;;;;37.58;25.10;;;;;;;;;;5028102;28;19909;-80
2021/09/08 00:53:05;;;;;;;33.63;24.23;;;;;;;;;;5029166;28;20041;-81
2021/09/08 00:55:30;;;;;;;31.40;24.20;;;;;;;;;;5029265;28;20616;-80
2021/09/08 00:57:55;;;;;;;38.38;25.30;;;;;;;;;;5030983;28;20260;-81
2021/09/08 01:00:20;;;;;;;37.20;27.43;;;;;;;;;;5032688;28;20036;-82
2021/09/08 01:02:46;;;;;;;34.45;23.75;;;;;;;;;;5029679;28;20257;-82
2021/09/08 01:05:11;;;;;;;38.22;26.95;;;;;;;;;;5029703;28;20029;-81
2021/09/08 01:07:37;;;;;;;39.17;26.92;;;;;;;;;;5029471;28;20049;-81
2021/09/08 01:10:02;;;;;;;37.42;26.70;;;;;;;;;;5031041;28;20021;-81
2021/09/08 01:12:27;;;;;;;39.70;30.45;;;;;;;;;;5030178;28;20045;-81
2021/09/08 01:14:53;;;;;;;39.57;27.33;;;;;;;;;;5030418;28;20108;-81
2021/09/08 01:17:21;;;;;;;41.80;29.58;;;;;;;;;;4992649;28;1063819;-81
2021/09/08 01:19:46;;;;;;;39.97;26.30;;;;;;;;;;5029549;28;20034;-81
2021/09/08 01:22:11;;;;;;;36.28;28.35;;;;;;;;;;5033069;28;20393;-81
2021/09/08 01:24:39;;;;;;;36.17;25.33;;;;;;;;;;5031805;28;20029;-81
2021/09/08 01:27:04;;;;;;;38.40;26.40;;;;;;;;;;5032548;28;20037;-82
2021/09/08 01:29:29;;;;;;;36.83;27.42;;;;;;;;;;5032029;28;20477;-82
2021/09/08 01:31:56;;;;;;;35.87;26.33;;;;;;;;;;5030952;28;20033;-81
2021/09/08 01:34:21;;;;;;;39.03;27.90;;;;;;;;;;5030802;28;20029;-81
2021/09/08 01:36:47;;;;;;;39.97;28.42;;;;;;;;;;5030411;28;20484;-82
2021/09/08 01:39:16;;;;;;;40.47;28.90;;;;;;;;;;5028835;28;20469;-81
2021/09/08 01:41:41;;;;;;;34.15;27.65;;;;;;;;;;5029949;28;20292;-81
2021/09/08 01:44:06;;;;;;;36.85;27.45;;;;;;;;;;5029343;28;20087;-81
2021/09/08 01:46:32;;;;;;;37.47;29.07;;;;;;;;;;5032783;28;20025;-82
2021/09/08 01:48:57;;;;;;;37.13;27.60;;;;;;;;;;5032518;28;20731;-82
2021/09/08 01:51:22;;;;;;;44.23;28.07;;;;;;;;;;5029749;28;20390;-81
2021/09/08 01:53:47;;;;;;;36.77;26.30;;;;;;;;;;5032651;28;20260;-82
2021/09/08 01:56:13;;;;;;;36.33;27.80;;;;;;;;;;5029695;28;20280;-81
2021/09/08 01:58:38;;;;;;;32.25;25.10;;;;;;;;;;5031236;28;20025;-81
2021/09/08 02:01:04;;;;;;;35.93;27.63;;;;;;;;;;5030753;28;20056;-81
2021/09/08 02:03:29;;;;;;;42.53;27.45;;;;;;;;;;5030408;28;20030;-81
2021/09/08 02:05:54;;;;;;;36.47;26.03;;;;;;;;;;5028144;28;20124;-81
2021/09/08 02:08:19;;;;;;;36.80;28.03;;;;;;;;;;5030000;28;20264;-81
2021/09/08 02:10:45;;;;;;;33.83;25.07;;;;;;;;;;5030407;28;20394;-81
2021/09/08 02:13:10;;;;;;;36.93;26.97;;;;;;;;;;5032859;28;20028;-82
2021/09/08 02:15:35;;;;;;;33.93;26.47;;;;;;;;;;5031876;28;20303;-81
2021/09/08 02:18:00;;;;;;;30.23;24.17;;;;;;;;;;5035293;28;20382;-81
2021/09/08 02:20:26;;;;;;;32.33;25.95;;;;;;;;;;5034730;28;20644;-82
2021/09/08 02:22:51;;;;;;;32.00;25.75;;;;;;;;;;5032426;28;20401;-82
2021/09/08 02:25:16;;;;;;;37.30;26.67;;;;;;;;;;5034380;28;20057;-82
2021/09/08 02:27:41;;;;;;;33.08;24.40;;;;;;;;;;5034932;28;20033;-81
2021/09/08 02:30:07;;;;;;;35.30;26.13;;;;;;;;;;5032432;28;20509;-81
2021/09/08 02:32:32;;;;;;;34.85;26.67;;;;;;;;;;5033084;28;20017;-82
2021/09/08 02:34:57;;;;;;;34.70;25.73;;;;;;;;;;5031761;28;20515;-81
2021/09/08 02:37:23;;;;;;;30.60;25.13;;;;;;;;;;5033115;28;20256;-81
2021/09/08 02:39:48;;;;;;;40.17;28.27;;;;;;;;;;5033875;28;20306;-82
2021/09/08 02:42:13;;;;;;;34.83;26.58;;;;;;;;;;5035618;28;20506;-82
2021/09/08 02:44:39;;;;;;;34.53;27.40;;;;;;;;;;5035003;28;20034;-81
2021/09/08 02:47:04;;;;;;;38.10;28.77;;;;;;;;;;5034805;28;20037;-81
2021/09/08 02:49:29;;;;;;;38.23;28.67;;;;;;;;;;5035287;28;20272;-80
2021/09/08 02:51:54;;;;;;;38.63;28.53;;;;;;;;;;5031435;28;20057;-81
2021/09/08 02:54:19;;;;;;;36.00;27.50;;;;;;;;;;5031156;28;20772;-81
2021/09/08 02:56:45;;;;;;;37.00;28.93;;;;;;;;;;5032623;28;20025;-81
2021/09/08 02:59:10;;;;;;;38.63;29.37;;;;;;;;;;5030906;28;20025;-81
2021/09/08 03:01:35;;;;;;;35.73;27.77;;;;;;;;;;5031624;28;20264;-81
2021/09/08 03:04:00;;;;;;;38.73;28.13;;;;;;;;;;5033051;28;20032;-81
2021/09/08 03:06:25;;;;;;;35.87;28.70;;;;;;;;;;5032749;28;20256;-81
2021/09/08 03:08:51;;;;;;;37.23;28.27;;;;;;;;;;5034467;28;20116;-82
2021/09/08 03:11:16;;;;;;;35.73;28.30;;;;;;;;;;5035047;28;20267;-82
2021/09/08 03:13:41;;;;;;;34.35;27.80;;;;;;;;;;5034778;28;20316;-82
2021/09/08 03:16:06;;;;;;;37.13;28.90;;;;;;;;;;5032494;28;20029;-82
2021/09/08 03:18:31;;;;;;;44.70;31.33;;;;;;;;;;5031929;28;20315;-81
2021/09/08 03:20:56;;;;;;;39.17;30.60;;;;;;;;;;5033265;28;20362;-81
2021/09/08 03:23:22;;;;;;;35.30;27.83;;;;;;;;;;5033009;28;20021;-81
2021/09/08 03:25:47;;;;;;;46.40;29.60;;;;;;;;;;5032401;28;20436;-82
2021/09/08 03:28:12;;;;;;;33.35;29.17;;;;;;;;;;5031299;28;20314;-81
2021/09/08 03:30:37;;;;;;;38.72;31.33;;;;;;;;;;5032131;28;20108;-81
2021/09/08 03:33:03;;;;;;;43.87;31.77;;;;;;;;;;5031991;28;20072;-81
2021/09/08 03:35:28;;;;;;;39.65;31.27;;;;;;;;;;5030481;28;20287;-81
2021/09/08 03:37:54;;;;;;;42.17;29.90;;;;;;;;;;5035283;28;20024;-82
2021/09/08 03:40:19;;;;;;;43.55;33.17;;;;;;;;;;5032416;28;20063;-82
2021/09/08 03:42:45;;;;;;;42.42;32.10;;;;;;;;;;5033344;28;20041;-82
2021/09/08 03:45:11;;;;;;;40.65;32.40;;;;;;;;;;5032690;28;20035;-81
2021/09/08 03:47:36;;;;;;;39.90;30.88;;;;;;;;;;5030224;28;20397;-82
2021/09/08 03:50:01;;;;;;;40.25;31.23;;;;;;;;;;5031608;28;20756;-81
2021/09/08 03:52:27;;;;;;;42.15;32.10;;;;;;;;;;5029298;28;20491;-81
2021/09/08 03:54:52;;;;;;;44.23;30.97;;;;;;;;;;5031431;28;20036;-81
2021/09/08 03:57:17;;;;;;;43.25;32.92;;;;;;;;;;5031012;28;20626;-81
2021/09/08 03:59:42;;;;;;;45.63;32.95;;;;;;;;;;5030944;28;20014;-81
2021/09/08 04:02:08;;;;;;;39.00;31.10;;;;;;;;;;5034637;28;20101;-81
2021/09/08 04:04:33;;;;;;;40.95;31.08;;;;;;;;;;5033775;28;20260;-81
2021/09/08 04:06:58;;;;;;;40.35;32.50;;;;;;;;;;5034285;28;20381;-82
2021/09/08 04:09:23;;;;;;;39.63;30.13;;;;;;;;;;5032002;28;20037;-81
2021/09/08 04:11:48;;;;;;;41.30;32.37;;;;;;;;;;5032593;28;20355;-81
2021/09/08 04:14:14;;;;;;;39.17;32.43;;;;;;;;;;5032009;28;20033;-82
2021/09/08 04:16:39;;;;;;;44.28;33.28;;;;;;;;;;5031414;28;20311;-81
2021/09/08 04:19:04;;;;;;;36.50;30.40;;;;;;;;;;5029553;28;20529;-81
2021/09/08 04:21:29;;;;;;;39.60;32.53;;;;;;;;;;5030807;28;20328;-81
2021/09/08 04:23:54;;;;;;;36.05;32.15;;;;;;;;;;5028749;28;20288;-81
2021/09/08 04:26:20;;;;;;;36.53;29.70;;;;;;;;;;5032024;28;20073;-82
2021/09/08 04:28:45;;;;;;;40.05;31.92;;;;;;;;;;5032655;28;20025;-82
2021/09/08 04:31:10;;;;;;;38.47;31.33;;;;;;;;;;5032253;28;20465;-81
2021/09/08 04:33:36;;;;;;;40.63;32.90;;;;;;;;;;5033101;28;20256;-82
2021/09/08 04:36:01;;;;;;;42.00;32.10;;;;;;;;;;5030764;28;20287;-81
2021/09/08 04:38:26;;;;;;;41.50;31.80;;;;;;;;;;5032085;28;20420;-81
2021/09/08 04:40:51;;;;;;;41.95;32.30;;;;;;;;;;5031601;28;20259;-81
2021/09/08 04:43:17;;;;;;;37.17;31.40;;;;;;;;;;5029554;28;20017;-81
2021/09/08 04:45:42;;;;;;;39.50;32.30;;;;;;;;;;5029526;28;20266;-81
2021/09/08 04:48:07;;;;;;;40.45;31.13;;;;;;;;;;5031254;28;20028;-81
2021/09/08 04:50:32;;;;;;;37.83;30.40;;;;;;;;;;5031170;28;20481;-81
2021/09/08 04:52:58;;;;;;;40.20;34.87;;;;;;;;;;5029070;28;20033;-81
2021/09/08 04:55:23;;;;;;;36.33;31.53;;;;;;;;;;5030250;28;20021;-81
2021/09/08 04:57:48;;;;;;;40.93;33.47;;;;;;;;;;5030348;28;20108;-81
2021/09/08 05:00:13;;;;;;;47.23;35.80;;;;;;;;;;5030245;28;20024;-82
2021/09/08 05:02:38;;;;;;;42.63;34.47;;;;;;;;;;5033311;28;20080;-81
2021/09/08 05:05:04;;;;;;;42.70;35.10;;;;;;;;;;5033001;28;20465;-82
2021/09/08 05:07:29;;;;;;;43.58;36.03;;;;;;;;;;5031940;28;20322;-81
2021/09/08 05:09:54;;;;;;;43.23;35.57;;;;;;;;;;5029905;28;20545;-81
2021/09/08 05:12:19;;;;;;;38.30;33.50;;;;;;;;;;5031334;28;20061;-81
2021/09/08 05:14:45;;;;;;;46.17;35.33;;;;;;;;;;5029141;28;20059;-81
2021/09/08 05:17:10;;;;;;;46.33;36.88;;;;;;;;;;5028649;28;20056;-80
2021/09/08 05:19:35;;;;;;;40.27;32.17;;;;;;;;;;5028918;28;20021;-82
2021/09/08 05:22:00;;;;;;;42.60;35.03;;;;;;;;;;5031210;28;20608;-81
2021/09/08 05:24:25;;;;;;;45.13;34.90;;;;;;;;;;5030803;28;20252;-81
2021/09/08 05:26:51;;;;;;;44.40;34.50;;;;;;;;;;5028837;28;20263;-81
2021/09/08 05:29:16;;;;;;;43.47;34.17;;;;;;;;;;5031012;28;20021;-81
2021/09/08 05:31:41;;;;;;;41.00;33.27;;;;;;;;;;5033131;28;20263;-81
2021/09/08 05:34:06;;;;;;;39.40;31.92;;;;;;;;;;5032467;28;20274;-81
2021/09/08 05:36:32;;;;;;;43.80;33.87;;;;;;;;;;5031692;28;20077;-81
2021/09/08 05:38:57;;;;;;;39.43;32.97;;;;;;;;;;5030865;28;20259;-82
2021/09/08 05:41:22;;;;;;;42.63;35.20;;;;;;;;;;5030577;28;20263;-81
2021/09/08 05:43:47;;;;;;;39.17;33.20;;;;;;;;;;5030776;28;20689;-81
2021/09/08 05:46:12;;;;;;;39.73;32.97;;;;;;;;;;5028520;28;20075;-81
2021/09/08 05:48:38;;;;;;;43.80;35.60;;;;;;;;;;5029942;28;20397;-81
2021/09/08 05:51:03;;;;;;;45.88;35.08;;;;;;;;;;5031578;28;20022;-81
2021/09/08 05:53:28;;;;;;;47.93;32.87;;;;;;;;;;5033629;28;20065;-81
2021/09/08 05:55:55;;;;;;;41.10;32.05;;;;;;;;;;5033966;28;20655;-81
2021/09/08 05:58:20;;;;;;;43.97;33.50;;;;;;;;;;5036284;28;20079;-82
2021/09/08 06:00:45;;;;;;;44.88;33.03;;;;;;;;;;5036595;28;20120;-82
2021/09/08 06:03:10;;;;;;;42.83;33.23;;;;;;;;;;5034540;28;20018;-82
2021/09/08 06:05:36;;;;;;;34.77;29.47;;;;;;;;;;5034595;28;20361;-82
2021/09/08 06:08:01;;;;;;;43.70;31.93;;;;;;;;;;5035435;28;20040;-82
2021/09/08 06:10:26;;;;;;;38.80;31.83;;;;;;;;;;5029837;28;20021;-81
2021/09/08 06:12:51;;;;;;;40.57;32.53;;;;;;;;;;5037555;28;20075;-82
2021/09/08 06:15:17;;;;;;;42.13;30.27;;;;;;;;;;5041970;28;20032;-82
2021/09/08 06:17:42;;;;;;;47.80;32.97;;;;;;;;;;5032606;28;20306;-81
2021/09/08 06:20:10;;;;;;;57.28;32.42;;;;;;;;;;5048060;28;20024;-81
2021/09/08 06:22:35;;;;;;;47.50;33.03;;;;;;;;;;5033189;28;20021;-81
2021/09/08 06:25:00;;;;;;;36.30;30.13;;;;;;;;;;5038961;28;20040;-81
2021/09/08 06:27:25;;;;;;;45.90;30.83;;;;;;;;;;5037758;28;20026;-81
2021/09/08 06:29:51;;;;;;;39.13;29.10;;;;;;;;;;5027947;28;20395;-80
2021/09/08 06:32:16;;;;;;;40.90;28.83;;;;;;;;;;5046420;28;20259;-81
2021/09/08 06:34:45;;;;;;;37.83;31.40;;;;;;;;;;5033627;28;20402;-81
2021/09/08 06:37:10;;;;;;;39.28;29.08;;;;;;;;;;5041773;28;20092;-81
2021/09/08 06:39:36;;;;;;;37.90;30.98;;;;;;;;;;5031486;28;20064;-81
2021/09/08 06:42:01;;;;;;;34.58;29.35;;;;;;;;;;5048939;28;20728;-82
2021/09/08 06:44:26;;;;;;;35.38;30.90;;;;;;;;;;5032425;28;20028;-81
2021/09/08 06:46:51;;;;;;;34.97;29.30;;;;;;;;;;5036492;28;20792;-82
2021/09/08 06:49:18;;;;;;;36.92;29.88;;;;;;;;;;5040519;28;20021;-81
2021/09/08 06:51:43;;;;;;;34.72;29.58;;;;;;;;;;5042715;28;20112;-81
2021/09/08 06:54:08;;;;;;;34.50;27.40;;;;;;;;;;5049879;28;20127;-81
2021/09/08 06:56:33;;;;;;;37.23;30.97;;;;;;;;;;5034307;28;20848;-82
2021/09/08 06:58:59;;;;;;;39.10;29.20;;;;;;;;;;5044462;28;20267;-82
2021/09/08 07:01:24;;;;;;;34.22;26.17;;;;;;;;;;5044081;28;20040;-81
2021/09/08 07:03:49;;;;;;;31.33;27.67;;;;;;;;;;5037356;28;20359;-81
2021/09/08 07:06:14;;;;;;;33.27;27.60;;;;;;;;;;5033971;28;20057;-82
2021/09/08 07:08:40;;;;;;;34.60;29.45;;;;;;;;;;5044626;28;20017;-81
2021/09/08 07:11:05;;;;;;;34.90;27.70;;;;;;;;;;5039675;28;20102;-81
2021/09/08 07:13:30;;;;;;;31.13;27.37;;;;;;;;;;5037563;28;20820;-81
2021/09/08 07:15:55;;;;;;;35.07;27.33;;;;;;;;;;5046183;28;20283;-81
2021/09/08 07:18:20;;;;;;;33.20;27.30;;;;;;;;;;5032540;28;20288;-81
2021/09/08 07:20:46;;;;;;;30.03;26.10;;;;;;;;;;5044687;28;20028;-82
2021/09/08 07:23:11;;;;;;;33.60;24.45;;;;;;;;;;5032600;28;20249;-82
2021/09/08 07:25:36;;;;;;;32.05;27.00;;;;;;;;;;5044957;28;20024;-82
2021/09/08 07:28:02;;;;;;;28.50;23.60;;;;;;;;;;5034743;28;20083;-81
2021/09/08 07:30:27;;;;;;;30.30;23.55;;;;;;;;;;5047579;28;20021;-82
2021/09/08 07:32:52;;;;;;;34.33;26.17;;;;;;;;;;5037118;28;20017;-82
2021/09/08 07:35:18;;;;;;;33.03;25.63;;;;;;;;;;5051022;28;20029;-81
2021/09/08 07:37:43;;;;;;;28.63;23.20;;;;;;;;;;5034701;28;20261;-81
2021/09/08 07:40:09;;;;;;;28.23;22.67;;;;;;;;;;5047150;28;20051;-81
2021/09/08 07:42:34;;;;;;;31.58;23.15;;;;;;;;;;5044922;28;20339;-81
2021/09/08 07:44:59;;;;;;;27.23;22.63;;;;;;;;;;5037731;28;20104;-81
2021/09/08 07:47:24;;;;;;;31.73;22.58;;;;;;;;;;5038417;28;21165;-81
2021/09/08 07:49:50;;;;;;;29.98;23.45;;;;;;;;;;5047519;28;20029;-82
2021/09/08 07:52:15;;;;;;;30.97;23.20;;;;;;;;;;5034925;28;20108;-82
2021/09/08 07:54:40;;;;;;;26.53;22.27;;;;;;;;;;5044006;28;20272;-82
2021/09/08 07:57:05;;;;;;;32.50;23.00;;;;;;;;;;5038834;28;20931;-82
2021/09/08 07:59:30;;;;;;;27.73;22.43;;;;;;;;;;5036197;28;20025;-82
2021/09/08 08:01:56;;;;;;;23.45;20.35;;;;;;;;;;5030345;28;20256;-82
2021/09/08 08:04:21;;;;;;;27.40;19.57;;;;;;;;;;5042756;28;20048;-81
2021/09/08 08:06:46;;;;;;;27.20;20.05;;;;;;;;;;5042942;28;20024;-82
2021/09/08 08:09:11;;;;;;;24.00;20.67;;;;;;;;;;5036437;28;20020;-81
2021/09/08 08:11:37;;;;;;;21.93;19.70;;;;;;;;;;5035565;28;20279;-82
2021/09/08 08:14:02;;;;;;;25.20;19.07;;;;;;;;;;5042435;28;20793;-81
2021/09/08 08:16:27;;;;;;;23.80;19.37;;;;;;;;;;5031201;28;20033;-82
2021/09/08 08:18:52;;;;;;;26.00;18.83;;;;;;;;;;5044653;28;20271;-82
2021/09/08 08:21:18;;;;;;;23.03;17.33;;;;;;;;;;5032128;28;20053;-82
2021/09/08 08:23:43;;;;;;;18.50;16.58;;;;;;;;;;5045040;28;20347;-82
2021/09/08 08:26:08;;;;;;;26.03;18.50;;;;;;;;;;5034162;28;20391;-82
2021/09/08 08:28:33;;;;;;;22.63;16.90;;;;;;;;;;5046063;28;20030;-82
2021/09/08 08:30:59;;;;;;;21.40;17.05;;;;;;;;;;5037201;28;20108;-82
2021/09/08 08:33:25;;;;;;;20.48;16.92;;;;;;;;;;5038717;28;20033;-82
2021/09/08 08:35:50;;;;;;;29.77;16.48;;;;;;;;;;5044136;28;20050;-82
2021/09/08 08:38:15;;;;;;;22.57;16.77;;;;;;;;;;5033095;28;20025;-82
2021/09/08 08:40:40;;;;;;;22.47;15.23;;;;;;;;;;5043702;28;20021;-82
2021/09/08 08:43:05;;;;;;;20.17;15.57;;;;;;;;;;5037382;28;20013;-82
2021/09/08 08:45:31;;;;;;;19.27;15.93;;;;;;;;;;5036959;28;20850;-81
2021/09/08 08:47:59;;;;;;;18.20;14.40;;;;;;;;;;5043864;28;20025;-82
2021/09/08 08:50:26;;;;;;;17.08;15.25;;;;;;;;;;5043513;28;20464;-82
2021/09/08 08:52:52;;;;;;;19.55;13.52;;;;;;;;;;5033042;28;20017;-82
2021/09/08 08:55:17;;;;;;;16.23;14.45;;;;;;;;;;5037742;28;20021;-82
2021/09/08 08:57:48;;;;;;;25.40;14.85;;;;;;;;;;5040218;28;20070;-81
2021/09/08 09:00:13;;;;;;;16.50;12.38;;;;;;;;;;5029978;28;20022;-81
2021/09/08 09:02:44;;;;;;;20.60;13.48;;;;;;;;;;5043935;28;20096;-82
2021/09/08 09:05:09;;;;;;;17.67;12.30;;;;;;;;;;5027720;28;20021;-82
2021/09/08 09:07:36;;;;;;;17.48;13.73;;;;;;;;;;5037959;28;20044;-80
2021/09/08 09:10:03;;;;;;;16.63;13.18;;;;;;;;;;5030285;28;20117;-79
2021/09/08 09:12:36;;;;;;;16.33;12.50;;;;;;;;;;5014237;28;20447;-83
2021/09/08 09:15:08;;;;;;;18.60;12.15;;;;;;;;;;5054192;28;20025;-83
2021/09/08 09:17:34;;;;;;;14.77;12.60;;;;;;;;;;5039173;28;20049;-82
2021/09/08 09:20:05;;;;;;;18.45;12.30;;;;;;;;;;5044574;28;20021;-80
2021/09/08 09:22:38;;;;;;;15.52;12.90;;;;;;;;;;5014688;28;20087;-79
2021/09/08 09:25:03;;;;;;;16.23;13.07;;;;;;;;;;5037479;28;20025;-80
2021/09/08 09:27:32;;;;;;;15.98;12.38;;;;;;;;;;5042809;28;20112;-80
2021/09/08 09:30:02;;;;;;;14.00;11.35;;;;;;;;;;5035154;28;20035;-80
2021/09/08 09:32:38;;;;;;;13.93;11.18;;;;;;;;;;5046627;28;20024;-79
2021/09/08 09:35:04;;;;;;;20.83;11.52;;;;;;;;;;5038132;28;20029;-80
2021/09/08 09:37:33;;;;;;;15.90;10.07;;;;;;;;;;5037241;28;20654;-80
2021/09/08 09:40:00;;;;;;;14.60;9.80;;;;;;;;;;5051052;28;20565;-80
2021/09/08 09:42:31;;;;;;;14.32;10.10;;;;;;;;;;5038201;28;20051;-80
2021/09/08 09:45:00;;;;;;;13.45;9.27;;;;;;;;;;5045815;28;20021;-80
2021/09/08 09:47:26;;;;;;;10.55;7.88;;;;;;;;;;5045337;28;20029;-80
2021/09/08 09:49:53;;;;;;;11.77;9.45;;;;;;;;;;5039680;28;20021;-80
2021/09/08 09:52:21;;;;;;;13.73;8.90;;;;;;;;;;5049777;28;20025;-81
2021/09/08 09:54:47;;;;;;;17.73;9.23;;;;;;;;;;5039916;28;20027;-80
2021/09/08 09:57:12;;;;;;;12.70;9.10;;;;;;;;;;5044043;28;20021;-80
2021/09/08 09:59:37;;;;;;;13.98;10.60;;;;;;;;;;5045689;28;20340;-81
2021/09/08 10:02:03;;;;;;;19.67;11.63;;;;;;;;;;5036979;28;20402;-81
2021/09/08 10:04:28;;;;;;;17.65;11.88;;;;;;;;;;5032477;28;20029;-80
2021/09/08 10:06:55;;;;;;;19.92;10.82;;;;;;;;;;5038549;28;20024;-80
2021/09/08 10:09:20;;;;;;;14.27;10.50;;;;;;;;;;5049461;28;20056;-80
2021/09/08 10:11:49;;;;;;;16.02;11.40;;;;;;;;;;5031146;28;20083;-80
2021/09/08 10:14:21;;;;;;;17.73;12.27;;;;;;;;;;5047855;28;20060;-80
2021/09/08 10:16:47;;;;;;;19.58;11.82;;;;;;;;;;5037658;28;20041;-82
2021/09/08 10:19:15;;;;;;;23.58;13.32;;;;;;;;;;5039993;28;20032;-82
2021/09/08 10:21:43;;;;;;;20.67;14.15;;;;;;;;;;5042889;28;20050;-82
2021/09/08 10:24:09;;;;;;;18.33;11.80;;;;;;;;;;5034229;28;20636;-82
2021/09/08 10:26:35;;;;;;;19.02;16.40;;;;;;;;;;5046792;28;20025;-82
2021/09/08 10:29:06;;;;;;;20.33;14.60;;;;;;;;;;5042073;28;20472;-82
2021/09/08 10:31:32;;;;;;;22.85;15.52;;;;;;;;;;5038835;28;20418;-82
2021/09/08 10:33:57;;;;;;;16.13;13.35;;;;;;;;;;5047446;28;20025;-82
2021/09/08 10:36:22;;;;;;;20.40;12.83;;;;;;;;;;5047665;28;20025;-82
2021/09/08 10:39:02;;;;;;;20.33;13.18;;;;;;;;;;5035593;28;20020;-81
2021/09/08 10:41:35;;;;;;;21.23;14.27;;;;;;;;;;5038386;28;20028;-82
2021/09/08 10:44:01;;;;;;;18.40;13.80;;;;;;;;;;5048186;28;20910;-82
2021/09/08 10:46:46;;;;;;;18.83;12.13;;;;;;;;;;5031615;28;20017;-82
2021/09/08 10:49:31;;;;;;;19.55;12.50;;;;;;;;;;5040185;28;20428;-81
2021/09/08 10:51:57;;;;;;;17.58;13.73;;;;;;;;;;5048350;28;20044;-82
2021/09/08 10:54:22;;;;;;;22.97;14.67;;;;;;;;;;5035107;28;20025;-82
2021/09/08 10:56:48;;;;;;;23.03;12.07;;;;;;;;;;5043139;28;20902;-81
2021/09/08 10:59:14;;;;;;;16.08;13.10;;;;;;;;;;5039701;28;20251;-81
2021/09/08 11:01:40;;;;;;;21.50;13.30;;;;;;;;;;5036919;28;20021;-82
2021/09/08 11:04:11;;;;;;;21.52;13.98;;;;;;;;;;5039802;28;20132;-82
2021/09/08 11:06:37;;;;;;;22.23;14.85;;;;;;;;;;5045481;28;20540;-82
2021/09/08 11:09:04;;;;;;;17.85;12.90;;;;;;;;;;5036755;28;20032;-82
2021/09/08 11:11:30;;;;;;;15.80;11.82;;;;;;;;;;5038820;28;20104;-82
2021/09/08 11:13:55;;;;;;;19.40;14.90;;;;;;;;;;5034086;28;20112;-82
2021/09/08 11:16:38;;;;;;;22.33;14.97;;;;;;;;;;5048212;28;20397;-82
2021/09/08 11:19:07;;;;;;;27.00;13.35;;;;;;;;;;5037772;28;20747;-82
2021/09/08 11:21:33;;;;;;;22.45;14.85;;;;;;;;;;5036449;28;20031;-82
2021/09/08 11:24:07;;;;;;;24.17;14.52;;;;;;;;;;5031551;28;20017;-81
2021/09/08 11:26:33;;;;;;;28.73;15.15;;;;;;;;;;5030636;28;20025;-82
2021/09/08 11:29:00;;;;;;;24.80;16.25;;;;;;;;;;5032155;28;20101;-82
2021/09/08 11:31:30;;;;;;;23.30;13.85;;;;;;;;;;5041140;28;20036;-82
2021/09/08 11:33:55;;;;;;;24.80;15.23;;;;;;;;;;5032393;28;20852;-82
2021/09/08 11:36:20;;;;;;;16.53;13.70;;;;;;;;;;5042804;28;20053;-82
2021/09/08 11:38:47;;;;;;;19.50;13.43;;;;;;;;;;5037256;28;20078;-82
2021/09/08 11:41:13;;;;;;;22.38;13.38;;;;;;;;;;5044810;28;20264;-82
2021/09/08 11:43:46;;;;;;;18.02;13.48;;;;;;;;;;5044299;28;20025;-82
2021/09/08 11:46:29;;;;;;;22.52;14.88;;;;;;;;;;5034952;28;20032;-82
2021/09/08 11:49:03;;;;;;;19.52;14.73;;;;;;;;;;5043172;28;20469;-82
2021/09/08 11:51:28;;;;;;;14.38;12.50;;;;;;;;;;5042258;28;20090;-82
2021/09/08 11:53:54;;;;;;;20.13;12.68;;;;;;;;;;5033740;28;20029;-82
2021/09/08 11:56:21;;;;;;;18.20;11.90;;;;;;;;;;5047061;28;20024;-82
2021/09/08 11:58:53;;;;;;;19.95;13.20;;;;;;;;;;5035480;28;20031;-82
2021/09/08 12:01:19;;;;;;;22.33;14.32;;;;;;;;;;5036743;28;20056;-82
2021/09/08 12:03:47;;;;;;;19.23;12.07;;;;;;;;;;5039591;28;20025;-82
2021/09/08 12:06:22;;;;;;;15.13;12.05;;;;;;;;;;5044991;28;20048;-82
2021/09/08 12:08:50;;;;;;;14.52;10.50;;;;;;;;;;5036533;28;20046;-82
2021/09/08 12:11:31;;;;;;;21.67;12.45;;;;;;;;;;5040859;28;20056;-82
2021/09/08 12:13:56;;;;;;;18.88;12.88;;;;;;;;;;5046122;28;20751;-82
2021/09/08 12:16:40;;;;;;;13.33;11.10;;;;;;;;;;5030303;28;20079;-82
2021/09/08 12:19:12;;;;;;;20.33;11.73;;;;;;;;;;5036951;28;20071;-82
2021/09/08 12:21:37;;;;;;;15.50;12.35;;;;;;;;;;5035441;28;20393;-82
2021/09/08 12:24:23;;;;;;;18.85;12.38;;;;;;;;;;5029804;28;20025;-82
2021/09/08 12:26:48;;;;;;;17.70;11.70;;;;;;;;;;5038424;28;20045;-82
2021/09/08 12:29:14;;;;;;;16.65;12.38;;;;;;;;;;5036770;28;20029;-83
2021/09/08 12:31:49;;;;;;;19.88;13.38;;;;;;;;;;5038024;28;20092;-83
2021/09/08 12:34:15;;;;;;;15.00;11.60;;;;;;;;;;5047512;28;20025;-83
2021/09/08 12:36:40;;;;;;;14.68;10.75;;;;;;;;;;5035562;28;20473;-83
2021/09/08 12:39:15;;;;;;;17.20;10.35;;;;;;;;;;5050852;28;20024;-82
2021/09/08 12:41:55;;;;;;;11.32;9.88;;;;;;;;;;5035296;28;20033;-83
2021/09/08 12:44:29;;;;;;;16.17;10.15;;;;;;;;;;5030041;28;20165;-83
2021/09/08 12:46:54;;;;;;;12.35;8.82;;;;;;;;;;5039462;28;20036;-83
2021/09/08 12:49:21;;;;;;;14.80;10.70;;;;;;;;;;5029148;28;20025;-83
2021/09/08 12:51:47;;;;;;;12.23;10.27;;;;;;;;;;5044039;28;20081;-83
2021/09/08 12:54:12;;;;;;;16.90;9.82;;;;;;;;;;5050287;28;20048;-83
2021/09/08 12:56:38;;;;;;;16.23;9.77;;;;;;;;;;5037466;28;20096;-83
2021/09/08 12:59:03;;;;;;;9.88;8.90;;;;;;;;;;5040809;28;20439;-83
2021/09/08 13:01:29;;;;;;;15.00;11.97;;;;;;;;;;5041885;28;20028;-83
2021/09/08 13:03:55;;;;;;;13.75;10.40;;;;;;;;;;5034899;28;20303;-84
2021/09/08 13:06:20;;;;;;;13.75;9.40;;;;;;;;;;5028546;28;20025;-83
2021/09/08 13:08:45;;;;;;;14.73;10.43;;;;;;;;;;5035290;28;20085;-82
2021/09/08 13:11:11;;;;;;;19.37;9.97;;;;;;;;;;5039922;28;20388;-83
2021/09/08 13:13:36;;;;;;;15.87;9.33;;;;;;;;;;5039487;28;20116;-83
2021/09/08 13:16:01;;;;;;;12.30;9.10;;;;;;;;;;5032488;28;20025;-84
2021/09/08 13:18:26;;;;;;;11.45;9.32;;;;;;;;;;5030155;28;20417;-83
2021/09/08 13:20:52;;;;;;;10.00;9.00;;;;;;;;;;5045673;28;20029;-83
2021/09/08 13:23:17;;;;;;;9.07;8.17;;;;;;;;;;5039075;28;20289;-84
2021/09/08 13:25:42;;;;;;;13.27;8.17;;;;;;;;;;5036150;28;20018;-84
2021/09/08 13:28:08;;;;;;;13.75;8.35;;;;;;;;;;5045882;28;20017;-83
2021/09/08 13:30:33;;;;;;;9.30;8.27;;;;;;;;;;5032950;28;20036;-83
2021/09/08 13:32:58;;;;;;;13.02;8.23;;;;;;;;;;5040744;28;20099;-84
2021/09/08 13:35:23;;;;;;;13.07;8.27;;;;;;;;;;5037649;28;20079;-83
2021/09/08 13:37:49;;;;;;;12.63;7.57;;;;;;;;;;5033014;28;20018;-83
2021/09/08 13:40:14;;;;;;;9.13;7.47;;;;;;;;;;5044498;28;20040;-84
2021/09/08 13:42:40;;;;;;;10.68;8.75;;;;;;;;;;5035787;28;20095;-84
2021/09/08 13:45:05;;;;;;;15.47;9.87;;;;;;;;;;5049861;28;20772;-83
2021/09/08 13:47:30;;;;;;;15.38;9.02;;;;;;;;;;5037647;28;20460;-84
2021/09/08 13:49:55;;;;;;;11.43;7.50;;;;;;;;;;5046300;28;20024;-84
2021/09/08 13:52:21;;;;;;;15.20;8.67;;;;;;;;;;5031575;28;20473;-83
2021/09/08 13:54:46;;;;;;;14.53;7.70;;;;;;;;;;5034498;28;20025;-83
2021/09/08 13:57:11;;;;;;;14.07;7.27;;;;;;;;;;5039248;28;20021;-83
2021/09/08 13:59:36;;;;;;;10.00;7.60;;;;;;;;;;5040669;28;20045;-84
2021/09/08 14:02:02;;;;;;;11.00;7.30;;;;;;;;;;5032006;28;20028;-83
2021/09/08 14:04:27;;;;;;;9.30;8.27;;;;;;;;;;5042304;28;20017;-84
2021/09/08 14:06:52;;;;;;;12.75;7.47;;;;;;;;;;5041460;28;20021;-83
2021/09/08 14:09:17;;;;;;;11.03;8.10;;;;;;;;;;5036898;28;20032;-84
2021/09/08 14:11:43;;;;;;;12.87;11.07;;;;;;;;;;5038227;28;20033;-84
2021/09/08 14:14:09;;;;;;;10.43;8.93;;;;;;;;;;5048481;28;20284;-84